createdAt,value
2019-04-29T00:02:20.881Z,3.77
2019-04-29T00:05:25.154Z,4.60
2019-04-29T00:08:29.414Z,3.67
2019-04-29T00:11:33.760Z,3.87
2019-04-29T00:14:39.404Z,4.00
2019-04-29T00:17:56.866Z,3.87
2019-04-29T00:21:01.199Z,3.90
2019-04-29T00:24:05.882Z,4.00
2019-04-29T00:27:10.513Z,3.30
2019-04-29T00:30:20.379Z,3.37
2019-04-29T00:33:24.611Z,3.57
2019-04-29T00:36:32.733Z,3.20
2019-04-29T00:39:54.967Z,3.63
2019-04-29T00:43:12.426Z,3.50
2019-04-29T00:46:16.892Z,3.37
2019-04-29T00:49:21.213Z,3.33
2019-04-29T00:52:25.548Z,3.40
2019-04-29T00:55:32.730Z,3.53
2019-04-29T00:58:36.987Z,3.10
2019-04-29T01:01:43.146Z,2.90
2019-04-29T01:04:47.388Z,3.27
2019-04-29T01:07:52.186Z,3.50
2019-04-29T01:10:56.646Z,3.43
2019-04-29T01:14:00.995Z,3.23
2019-04-29T01:17:05.258Z,3.07
2019-04-29T01:20:09.847Z,2.90
2019-04-29T01:23:14.030Z,2.93
2019-04-29T01:26:33.752Z,3.10
2019-04-29T01:29:38.074Z,2.83
2019-04-29T01:32:42.500Z,2.90
2019-04-29T01:35:48.347Z,2.43
2019-04-29T01:38:54.171Z,2.80
2019-04-29T01:42:29.358Z,2.83
2019-04-29T01:45:33.730Z,2.63
2019-04-29T01:48:37.900Z,2.40
2019-04-29T01:51:42.101Z,2.50
2019-04-29T01:54:46.280Z,2.37
2019-04-29T01:57:50.573Z,2.60
2019-04-29T02:00:54.820Z,2.70
2019-04-29T02:04:00.045Z,2.30
2019-04-29T02:07:04.450Z,2.60
2019-04-29T02:10:16.046Z,2.30
2019-04-29T02:13:20.307Z,2.27
2019-04-29T02:16:24.682Z,2.23
2019-04-29T02:19:29.009Z,2.30
2019-04-29T02:22:38.560Z,2.13
2019-04-29T02:25:44.241Z,1.80
2019-04-29T02:28:49.020Z,1.83
2019-04-29T02:31:53.264Z,1.90
2019-04-29T02:34:57.574Z,1.90
2019-04-29T02:38:02.295Z,1.80
2019-04-29T02:41:28.634Z,1.90
2019-04-29T02:44:32.966Z,2.37
2019-04-29T02:47:37.349Z,2.50
2019-04-29T02:50:41.672Z,2.40
2019-04-29T02:53:46.029Z,2.40
2019-04-29T02:57:12.349Z,2.23
2019-04-29T03:00:25.870Z,2.67
2019-04-29T03:03:49.265Z,2.50
2019-04-29T03:06:53.643Z,2.57
2019-04-29T03:09:57.884Z,3.03
2019-04-29T03:13:02.123Z,3.00
2019-04-29T03:16:06.443Z,2.90
2019-04-29T03:19:17.151Z,2.93
2019-04-29T03:22:21.585Z,3.53
2019-04-29T03:25:25.939Z,3.13
2019-04-29T03:28:30.326Z,3.63
2019-04-29T03:31:38.987Z,3.83
2019-04-29T03:34:40.683Z,3.70
2019-04-29T03:37:44.967Z,3.73
2019-04-29T03:40:49.215Z,4.13
2019-04-29T03:43:53.569Z,3.90
2019-04-29T03:46:57.870Z,3.80
2019-04-29T03:50:02.175Z,4.47
2019-04-29T03:53:06.432Z,4.47
2019-04-29T03:56:10.711Z,4.70
2019-04-29T03:59:14.886Z,4.67
2019-04-29T04:02:34.391Z,5.10
2019-04-29T04:05:44.935Z,4.40
2019-04-29T04:09:05.365Z,5.17
2019-04-29T04:12:02.392Z,4.97
2019-04-29T04:15:07.401Z,5.30
2019-04-29T04:18:31.632Z,5.90
2019-04-29T04:21:36.005Z,5.17
2019-04-29T04:24:40.265Z,5.67
2019-04-29T04:27:44.730Z,5.80
2019-04-29T04:30:49.052Z,5.87
2019-04-29T04:33:53.416Z,6.03
2019-04-29T04:37:00.220Z,6.50
2019-04-29T04:40:04.654Z,6.10
2019-04-29T04:43:08.923Z,5.97
2019-04-29T04:46:13.336Z,6.13
2019-04-29T04:49:18.788Z,6.60
2019-04-29T04:52:23.158Z,6.20
2019-04-29T04:55:30.040Z,6.80
2019-04-29T04:58:34.391Z,6.03
2019-04-29T05:01:38.923Z,6.77
2019-04-29T05:04:43.330Z,6.47
2019-04-29T05:07:47.657Z,6.97
2019-04-29T05:10:52.004Z,6.80
2019-04-29T05:13:56.298Z,6.30
2019-04-29T05:17:00.598Z,6.67
2019-04-29T05:20:05.374Z,6.20
2019-04-29T05:23:09.678Z,6.97
2019-04-29T05:26:13.942Z,6.23
2019-04-29T05:29:18.315Z,6.43
2019-04-29T05:32:22.655Z,6.20
2019-04-29T05:35:32.954Z,6.13
2019-04-29T05:38:41.082Z,5.97
2019-04-29T05:41:45.491Z,6.23
2019-04-29T05:44:59.544Z,5.77
2019-04-29T05:48:09.299Z,6.13
2019-04-29T05:51:44.610Z,5.37
2019-04-29T05:54:48.954Z,5.53
2019-04-29T05:57:55.846Z,5.93
2019-04-29T06:01:09.083Z,5.93
2019-04-29T06:04:16.426Z,6.13
2019-04-29T06:07:21.660Z,5.80
2019-04-29T06:10:25.278Z,6.53
2019-04-29T06:13:29.556Z,5.53
2019-04-29T06:16:33.751Z,5.90
2019-04-29T06:19:39.257Z,5.73
2019-04-29T06:22:43.943Z,5.67
2019-04-29T06:25:48.247Z,6.10
2019-04-29T06:28:52.567Z,5.47
2019-04-29T06:31:56.767Z,5.20
2019-04-29T06:35:01.048Z,5.07
2019-04-29T06:38:05.490Z,5.10
2019-04-29T06:41:10.919Z,4.50
2019-04-29T06:44:16.740Z,5.17
2019-04-29T06:47:21.281Z,4.67
2019-04-29T06:50:25.690Z,4.60
2019-04-29T06:53:29.960Z,4.60
2019-04-29T06:56:34.546Z,4.60
2019-04-29T06:59:38.816Z,3.97
2019-04-29T07:02:45.526Z,4.73
2019-04-29T07:05:51.465Z,4.10
2019-04-29T07:08:55.066Z,4.17
2019-04-29T07:12:01.546Z,3.63
2019-04-29T07:15:07.752Z,4.23
2019-04-29T07:18:12.716Z,4.00
2019-04-29T07:21:17.190Z,4.03
2019-04-29T07:24:21.528Z,4.03
2019-04-29T07:27:25.823Z,3.70
2019-04-29T07:30:30.160Z,3.93
2019-04-29T07:33:34.433Z,3.57
2019-04-29T07:36:38.633Z,3.77
2019-04-29T07:39:42.999Z,3.20
2019-04-29T07:42:47.515Z,3.20
2019-04-29T07:46:07.097Z,3.13
2019-04-29T07:49:12.855Z,3.27
2019-04-29T07:52:17.239Z,2.90
2019-04-29T07:55:21.499Z,2.63
2019-04-29T07:58:27.299Z,2.77
2019-04-29T08:01:31.846Z,2.57
2019-04-29T08:04:40.437Z,2.57
2019-04-29T08:07:44.916Z,2.50
2019-04-29T08:10:55.981Z,2.50
2019-04-29T08:13:55.415Z,2.70
2019-04-29T08:16:59.899Z,2.63
2019-04-29T08:20:05.291Z,3.10
2019-04-29T08:23:10.315Z,2.60
2019-04-29T08:26:14.495Z,2.67
2019-04-29T08:29:18.736Z,3.00
2019-04-29T08:32:22.983Z,2.50
2019-04-29T08:35:27.199Z,2.50
2019-04-29T08:38:31.530Z,3.03
2019-04-29T08:41:35.887Z,2.70
2019-04-29T08:44:59.847Z,2.87
2019-04-29T08:48:04.583Z,1.93
2019-04-29T08:51:08.767Z,2.30
2019-04-29T08:54:16.136Z,1.70
2019-04-29T08:57:19.027Z,2.10
2019-04-29T09:00:23.410Z,2.03
2019-04-29T09:03:40.269Z,2.03
2019-04-29T09:06:37.642Z,2.03
2019-04-29T09:09:41.892Z,2.17
2019-04-29T09:12:46.247Z,2.43
2019-04-29T09:15:50.514Z,2.63
2019-04-29T09:18:55.406Z,2.53
2019-04-29T09:22:02.554Z,3.07
2019-04-29T09:25:30.738Z,3.37
2019-04-29T09:28:34.922Z,4.00
2019-04-29T09:31:39.298Z,3.57
2019-04-29T09:34:43.552Z,4.03
2019-04-29T09:37:47.912Z,3.97
2019-04-29T09:40:59.509Z,3.93
2019-04-29T09:44:12.509Z,3.90
2019-04-29T09:47:17.074Z,4.63
2019-04-29T09:50:21.462Z,4.47
2019-04-29T09:53:25.795Z,5.33
2019-04-29T09:56:30.174Z,4.63
2019-04-29T09:59:39.522Z,5.27
2019-04-29T10:02:51.890Z,5.10
2019-04-29T10:06:06.289Z,5.40
2019-04-29T10:09:15.073Z,5.10
2019-04-29T10:12:19.332Z,5.00
2019-04-29T10:15:31.632Z,5.30
2019-04-29T10:18:40.922Z,5.60
2019-04-29T10:21:46.180Z,5.67
2019-04-29T10:24:50.527Z,5.83
2019-04-29T10:27:54.961Z,5.50
2019-04-29T10:30:59.316Z,5.47
2019-04-29T10:34:03.659Z,5.70
2019-04-29T10:37:09.003Z,5.80
2019-04-29T10:40:37.242Z,5.57
2019-04-29T10:43:53.738Z,5.27
2019-04-29T10:47:17.690Z,5.70
2019-04-29T10:50:31.177Z,6.03
2019-04-29T10:53:35.886Z,5.90
2019-04-29T10:56:41.097Z,6.23
2019-04-29T10:59:50.205Z,6.80
2019-04-29T11:02:54.014Z,7.27
2019-04-29T11:06:01.800Z,6.93
2019-04-29T11:09:46.242Z,7.77
2019-04-29T11:12:50.272Z,7.90
2019-04-29T11:15:54.955Z,7.93
2019-04-29T11:19:03.077Z,8.73
2019-04-29T11:22:05.671Z,9.70
2019-04-29T11:25:32.357Z,9.10
2019-04-29T11:28:37.418Z,9.37
2019-04-29T11:31:42.087Z,9.60
2019-04-29T11:35:11.254Z,8.70
2019-04-29T11:38:17.063Z,9.20
2019-04-29T11:41:21.704Z,10.20
2019-04-29T11:44:27.703Z,9.60
2019-04-29T11:47:32.572Z,10.60
2019-04-29T11:50:50.130Z,10.47
2019-04-29T11:53:53.063Z,10.40
2019-04-29T11:56:58.966Z,11.90
2019-04-29T12:00:25.247Z,10.97
2019-04-29T12:03:37.297Z,12.00
2019-04-29T12:06:40.932Z,12.30
2019-04-29T12:09:45.496Z,11.43
2019-04-29T12:12:49.965Z,12.90
2019-04-29T12:16:24.010Z,12.80
2019-04-29T12:19:28.973Z,13.43
2019-04-29T12:22:47.172Z,13.23
2019-04-29T12:25:39.369Z,13.33
2019-04-29T12:28:44.544Z,12.33
2019-04-29T12:32:06.414Z,13.67
2019-04-29T12:35:33.711Z,14.63
2019-04-29T12:38:55.828Z,14.40
2019-04-29T12:42:20.200Z,14.53
2019-04-29T12:45:28.348Z,15.00
2019-04-29T12:48:32.634Z,14.87
2019-04-29T12:51:36.923Z,15.63
2019-04-29T12:54:41.974Z,15.13
2019-04-29T12:57:47.306Z,15.57
2019-04-29T13:00:59.938Z,17.50
2019-04-29T13:04:05.370Z,16.30
2019-04-29T13:07:16.752Z,16.73
2019-04-29T13:10:26.351Z,17.73
2019-04-29T13:13:30.846Z,17.97
2019-04-29T13:16:42.486Z,17.80
2019-04-29T13:20:02.044Z,17.50
2019-04-29T13:23:16.904Z,18.03
2019-04-29T13:26:08.067Z,19.50
2019-04-29T13:29:26.247Z,18.80
2019-04-29T13:32:19.311Z,18.57
2019-04-29T13:35:23.888Z,19.10
2019-04-29T13:38:28.963Z,18.97
2019-04-29T13:41:34.137Z,18.37
2019-04-29T13:44:42.548Z,18.57
2019-04-29T13:47:55.533Z,19.77
2019-04-29T13:51:04.413Z,17.43
2019-04-29T13:54:08.758Z,19.27
2019-04-29T13:57:16.042Z,19.50
2019-04-29T14:00:51.458Z,18.77
2019-04-29T14:04:24.218Z,17.50
2019-04-29T14:07:25.015Z,17.37
2019-04-29T14:10:29.334Z,17.53
2019-04-29T14:13:33.671Z,16.63
2019-04-29T14:16:38.129Z,16.93
2019-04-29T14:19:42.722Z,16.10
2019-04-29T14:22:47.198Z,15.73
2019-04-29T14:25:51.571Z,17.30
2019-04-29T14:28:55.897Z,16.00
2019-04-29T14:32:01.283Z,15.17
2019-04-29T14:35:28.013Z,14.40
2019-04-29T14:38:36.045Z,12.60
2019-04-29T14:41:40.455Z,14.60
2019-04-29T14:45:02.264Z,14.50
2019-04-29T14:48:14.471Z,14.33
2019-04-29T14:51:18.699Z,13.40
2019-04-29T14:54:23.080Z,13.30
2019-04-29T14:57:27.362Z,13.80
2019-04-29T15:00:49.496Z,12.37
2019-04-29T15:03:56.583Z,11.03
2019-04-29T15:07:01.021Z,11.63
2019-04-29T15:10:07.663Z,12.23
2019-04-29T15:13:21.269Z,11.73
2019-04-29T15:16:35.012Z,12.17
2019-04-29T15:19:56.183Z,11.80
2019-04-29T15:23:01.152Z,11.27
2019-04-29T15:26:05.664Z,11.50
2019-04-29T15:29:09.849Z,11.70
2019-04-29T15:32:17.778Z,11.13
2019-04-29T15:35:24.287Z,11.47
2019-04-29T15:38:26.635Z,12.73
2019-04-29T15:41:33.306Z,12.00
2019-04-29T15:44:37.649Z,12.33
2019-04-29T15:47:45.808Z,11.23
2019-04-29T15:50:48.274Z,12.80
2019-04-29T15:53:55.850Z,12.77
2019-04-29T15:57:03.746Z,12.47
2019-04-29T16:00:20.479Z,12.17
2019-04-29T16:03:17.847Z,13.20
2019-04-29T16:06:48.204Z,11.70
2019-04-29T16:10:20.723Z,12.67
2019-04-29T16:13:27.780Z,12.23
2019-04-29T16:16:31.383Z,12.73
2019-04-29T16:19:35.727Z,11.43
2019-04-29T16:22:39.970Z,12.10
2019-04-29T16:25:46.471Z,11.07
2019-04-29T16:28:51.902Z,10.67
2019-04-29T16:32:02.174Z,11.70
2019-04-29T16:35:03.272Z,11.03
2019-04-29T16:38:11.671Z,10.70
2019-04-29T16:41:30.579Z,11.90
2019-04-29T16:44:36.389Z,11.93
2019-04-29T16:47:47.550Z,11.67
2019-04-29T16:50:47.020Z,11.67
2019-04-29T16:53:51.523Z,12.13
2019-04-29T16:56:55.851Z,12.20
2019-04-29T17:00:00.361Z,12.23
2019-04-29T17:03:04.690Z,13.20
2019-04-29T17:06:09.064Z,13.00
2019-04-29T17:09:42.781Z,13.17
2019-04-29T17:12:51.526Z,13.13
2019-04-29T17:15:56.942Z,12.93
2019-04-29T17:19:01.313Z,12.13
2019-04-29T17:25:16.148Z,12.27
2019-04-29T17:28:29.242Z,11.97
2019-04-29T17:31:57.853Z,12.77
2019-04-29T17:35:02.687Z,13.30
2019-04-29T17:35:16.794Z,13.13
2019-04-29T17:38:09.523Z,12.67
2019-04-29T17:41:22.633Z,13.50
2019-04-29T17:44:46.588Z,13.23
2019-04-29T17:48:00.336Z,14.23
2019-04-29T17:51:07.159Z,14.33
2019-04-29T17:54:13.418Z,14.17
2019-04-29T17:57:33.315Z,14.27
2019-04-29T18:01:00.494Z,16.80
2019-04-29T18:04:22.748Z,15.33
2019-04-29T18:07:40.550Z,18.53
2019-04-29T18:10:48.200Z,20.03
2019-04-29T18:13:57.030Z,18.00
2019-04-29T18:17:01.414Z,23.17
2019-04-29T18:20:37.306Z,18.60
2019-04-29T18:24:05.003Z,18.80
2019-04-29T18:27:15.757Z,17.73
2019-04-29T18:30:33.261Z,17.10
2019-04-29T18:33:30.301Z,17.00
2019-04-29T18:36:35.140Z,16.63
2019-04-29T18:39:40.466Z,15.20
2019-04-29T18:42:48.465Z,16.17
2019-04-29T18:45:56.760Z,16.23
2019-04-29T18:49:03.107Z,17.40
2019-04-29T18:52:07.688Z,17.50
2019-04-29T18:55:11.807Z,17.37
2019-04-29T18:58:16.379Z,17.67
2019-04-29T19:01:24.135Z,17.77
2019-04-29T19:04:38.331Z,18.00
2019-04-29T19:07:54.390Z,20.77
2019-04-29T19:10:51.036Z,47.10
2019-04-29T19:13:56.777Z,74.70
2019-04-29T19:17:01.487Z,53.17
2019-04-29T19:20:08.705Z,50.23
2019-04-29T19:23:16.128Z,43.47
2019-04-29T19:26:22.309Z,44.50
2019-04-29T19:29:24.856Z,44.50
2019-04-29T19:32:29.183Z,38.97
2019-04-29T19:35:38.274Z,37.80
2019-04-29T19:38:43.410Z,38.43
2019-04-29T19:41:50.518Z,52.30
2019-04-29T19:44:51.783Z,56.13
2019-04-29T19:47:56.168Z,41.13
2019-04-29T19:51:14.775Z,41.87
2019-04-29T19:54:06.715Z,40.97
2019-04-29T19:57:11.120Z,50.87
2019-04-29T20:00:17.814Z,54.53
2019-04-29T20:03:26.580Z,44.80
2019-04-29T20:06:30.308Z,54.77
2019-04-29T20:09:37.281Z,51.50
2019-04-29T20:12:40.308Z,90.67
2019-04-29T20:15:57.249Z,76.07
2019-04-29T20:19:19.818Z,72.50
2019-04-29T20:22:20.375Z,74.33
2019-04-29T20:25:30.883Z,64.67
2019-04-29T20:28:32.759Z,71.57
2019-04-29T20:31:38.967Z,56.63
2019-04-29T20:34:43.470Z,168.90
2019-04-29T20:37:55.384Z,109.97
2019-04-29T20:40:55.463Z,153.07
2019-04-29T20:44:00.948Z,78.20
2019-04-29T20:47:19.617Z,84.03
2019-04-29T20:50:14.017Z,82.93
2019-04-29T20:53:30.774Z,45.87
2019-04-29T20:56:35.203Z,52.27
2019-04-29T20:59:42.129Z,56.67
2019-04-29T21:02:46.374Z,42.23
2019-04-29T21:05:54.916Z,51.27
2019-04-29T21:08:58.685Z,46.60
2019-04-29T21:12:20.289Z,62.20
2019-04-29T21:15:29.075Z,76.27
2019-04-29T21:18:35.715Z,97.10
2019-04-29T21:21:41.922Z,75.30
2019-04-29T21:24:49.413Z,50.23
2019-04-29T21:27:52.619Z,46.77
2019-04-29T21:30:58.075Z,34.27
2019-04-29T21:34:02.377Z,31.63
2019-04-29T21:37:25.856Z,32.43
2019-04-29T21:40:36.357Z,31.53
2019-04-29T21:43:41.788Z,31.23
2019-04-29T21:46:46.072Z,30.23
2019-04-29T21:49:54.588Z,28.50
2019-04-29T21:53:01.944Z,30.07
2019-04-29T21:56:09.096Z,41.37
2019-04-29T21:59:12.287Z,63.80
2019-04-29T22:02:17.589Z,100.83
2019-04-29T22:05:22.167Z,40.57
2019-04-29T22:08:29.798Z,60.63
2019-04-29T22:11:37.751Z,96.67
2019-04-29T22:14:38.287Z,105.90
2019-04-29T22:17:53.787Z,73.37
2019-04-29T22:20:48.590Z,54.43
2019-04-29T22:23:52.881Z,36.03
2019-04-29T22:27:04.119Z,27.30
2019-04-29T22:30:03.293Z,40.30
2019-04-29T22:33:07.967Z,75.27
2019-04-29T22:36:14.696Z,44.90
2019-04-29T22:39:21.782Z,46.57
2019-04-29T22:42:43.430Z,36.93
2019-04-29T22:45:47.835Z,33.50
2019-04-29T22:48:52.115Z,26.97
2019-04-29T22:51:57.254Z,36.00
2019-04-29T22:55:02.243Z,26.47
2019-04-29T22:58:09.769Z,24.00
2019-04-29T23:01:12.800Z,19.90
2019-04-29T23:04:17.999Z,20.93
2019-04-29T23:07:23.383Z,20.30
2019-04-29T23:10:28.126Z,19.30
2019-04-29T23:13:32.441Z,20.27
2019-04-29T23:16:37.039Z,30.10
2019-04-29T23:19:46.435Z,19.33
2019-04-29T23:22:56.838Z,30.60
2019-04-29T23:26:04.171Z,35.60
2019-04-29T23:29:07.326Z,41.83
2019-04-29T23:32:11.771Z,43.77
2019-04-29T23:35:16.079Z,24.77
2019-04-29T23:38:20.350Z,24.70
2019-04-29T23:41:27.704Z,23.30
2019-04-29T23:44:30.624Z,27.80
2019-04-29T23:47:35.762Z,23.87
2019-04-29T23:50:40.160Z,27.17
2019-04-29T23:53:45.297Z,12.70
2019-04-29T23:57:07.320Z,11.83
